createdAt,value
2022-09-11T00:01:41.097Z,100021.84
2022-09-11T00:04:10.491Z,100027.09
2022-09-11T00:06:38.792Z,100028.31
2022-09-11T00:09:08.572Z,100026.63
2022-09-11T00:11:41.429Z,100032.84
2022-09-11T00:14:10.874Z,100031.44
2022-09-11T00:16:41.771Z,100024.72
2022-09-11T00:19:12.850Z,100024.41
2022-09-11T00:21:40.755Z,100027.94
2022-09-11T00:24:10.391Z,100027.81
2022-09-11T00:26:41.134Z,100025.03
2022-09-11T00:29:09.619Z,100026.56
2022-09-11T00:31:37.539Z,100025.75
2022-09-11T00:34:06.926Z,100030.44
2022-09-11T00:36:35.743Z,100027.94
2022-09-11T00:39:03.851Z,100036.03
2022-09-11T00:41:36.345Z,100038.81
2022-09-11T00:44:07.594Z,100048.03
2022-09-11T00:46:39.983Z,100043.78
2022-09-11T00:49:18.055Z,100047.19
2022-09-11T00:51:50.547Z,100054.81
2022-09-11T00:54:21.366Z,100052.47
2022-09-11T00:56:51.061Z,100056.75
2022-09-11T00:59:25.535Z,100061.47
2022-09-11T01:01:55.307Z,100057.06
2022-09-11T01:04:24.850Z,100067.78
2022-09-11T01:06:56.692Z,100068.22
2022-09-11T01:09:25.710Z,100068.34
2022-09-11T01:12:01.638Z,100073.06
2022-09-11T01:14:42.937Z,100072.28
2022-09-11T01:17:23.299Z,100070.88
2022-09-11T01:20:26.811Z,100072.28
2022-09-11T01:23:31.343Z,100069.78
2022-09-11T01:26:32.580Z,100071.63
2022-09-11T01:29:06.872Z,100070.41
2022-09-11T01:31:41.172Z,100076.59
2022-09-11T01:34:17.327Z,100078.81
2022-09-11T01:36:53.901Z,100081.47
2022-09-11T01:39:27.538Z,100076.97
2022-09-11T01:42:01.937Z,100080.88
2022-09-11T01:44:36.459Z,100081.91
2022-09-11T01:47:11.404Z,100083.25
2022-09-11T01:49:44.563Z,100081.34
2022-09-11T01:52:16.907Z,100084.66
2022-09-11T01:54:48.363Z,100083.50
2022-09-11T01:57:25.537Z,100087.78
2022-09-11T02:00:00.952Z,100081.72
2022-09-11T02:02:37.861Z,100074.25
2022-09-11T02:05:10.154Z,100075.22
2022-09-11T02:07:44.621Z,100080.19
2022-09-11T02:10:20.185Z,100084.44
2022-09-11T02:12:54.638Z,100083.41
2022-09-11T02:15:31.514Z,100085.88
2022-09-11T02:18:03.937Z,100085.00
2022-09-11T02:20:34.280Z,100079.09
2022-09-11T02:23:03.065Z,100087.38
2022-09-11T02:25:31.130Z,100092.34
2022-09-11T02:27:58.979Z,100098.38
2022-09-11T02:30:28.413Z,100101.81
2022-09-11T02:32:56.551Z,100103.25
2022-09-11T02:35:32.837Z,100095.91
2022-09-11T02:38:08.895Z,100107.78
2022-09-11T02:40:47.666Z,100111.25
2022-09-11T02:43:34.824Z,100109.44
2022-09-11T02:46:22.976Z,100111.13
2022-09-11T02:49:02.219Z,100121.72
2022-09-11T02:51:39.175Z,100132.34
2022-09-11T02:54:19.189Z,100125.72
2022-09-11T02:56:52.984Z,100136.06
2022-09-11T02:59:26.192Z,100117.31
2022-09-11T03:02:01.973Z,100132.50
2022-09-11T03:04:31.811Z,100132.09
2022-09-11T03:07:00.348Z,100137.75
2022-09-11T03:09:28.228Z,100139.69
2022-09-11T03:12:01.989Z,100138.81
2022-09-11T03:14:31.267Z,100145.72
2022-09-11T03:17:00.675Z,100151.19
2022-09-11T03:19:29.074Z,100146.16
2022-09-11T03:21:56.820Z,100150.84
2022-09-11T03:24:26.421Z,100151.88
2022-09-11T03:26:54.196Z,100158.09
2022-09-11T03:29:22.490Z,100157.28
2022-09-11T03:31:51.491Z,100159.59
2022-09-11T03:34:21.441Z,100159.66
2022-09-11T03:36:49.295Z,100168.38
2022-09-11T03:39:17.247Z,100165.00
2022-09-11T03:41:45.081Z,100162.38
2022-09-11T03:44:13.505Z,100168.63
2022-09-11T03:46:41.450Z,100169.28
2022-09-11T03:49:10.286Z,100169.88
2022-09-11T03:51:39.485Z,100178.78
2022-09-11T03:54:08.110Z,100176.06
2022-09-11T03:56:37.275Z,100185.00
2022-09-11T03:59:05.160Z,100182.97
2022-09-11T04:01:33.222Z,100186.53
2022-09-11T04:04:01.769Z,100188.13
2022-09-11T04:06:35.720Z,100186.38
2022-09-11T04:09:07.136Z,100192.44
2022-09-11T04:11:38.967Z,100182.22
2022-09-11T04:14:14.822Z,100188.19
2022-09-11T04:16:44.037Z,100188.31
2022-09-11T04:19:13.246Z,100185.94
2022-09-11T04:21:42.561Z,100194.03
2022-09-11T04:24:12.687Z,100186.19
2022-09-11T04:26:40.788Z,100198.31
2022-09-11T04:29:17.734Z,100192.69
2022-09-11T04:31:47.128Z,100196.84
2022-09-11T04:34:16.382Z,100197.69
2022-09-11T04:36:44.759Z,100184.22
2022-09-11T04:39:18.244Z,100197.16
2022-09-11T04:41:48.411Z,100195.13
2022-09-11T04:44:17.419Z,100192.91
2022-09-11T04:46:45.582Z,100194.81
2022-09-11T04:49:14.778Z,100194.69
2022-09-11T04:51:45.279Z,100201.63
2022-09-11T04:54:21.066Z,100210.94
2022-09-11T04:56:50.248Z,100213.69
2022-09-11T04:59:22.226Z,100215.84
2022-09-11T05:01:56.071Z,100214.06
2022-09-11T05:04:27.458Z,100221.91
2022-09-11T05:06:56.812Z,100225.78
2022-09-11T05:09:28.241Z,100231.34
2022-09-11T05:11:58.060Z,100229.41
2022-09-11T05:14:32.661Z,100230.41
2022-09-11T05:17:03.137Z,100238.47
2022-09-11T05:19:32.207Z,100237.66
2022-09-11T05:22:00.391Z,100240.59
2022-09-11T05:24:29.790Z,100245.16
2022-09-11T05:26:59.064Z,100237.63
2022-09-11T05:29:32.483Z,100246.41
2022-09-11T05:32:09.902Z,100254.69
2022-09-11T05:34:37.612Z,100254.88
2022-09-11T05:37:06.508Z,100266.63
2022-09-11T05:39:42.319Z,100265.38
2022-09-11T05:42:11.821Z,100269.38
2022-09-11T05:44:43.523Z,100265.13
2022-09-11T05:47:14.544Z,100262.50
2022-09-11T06:05:05.834Z,100283.38
2022-09-11T06:33:55.159Z,100309.09
2022-09-11T06:46:21.312Z,100321.16
2022-09-11T06:52:34.621Z,100325.63
2022-09-11T06:58:32.781Z,100326.13
2022-09-11T07:01:23.370Z,100332.09
2022-09-11T07:07:15.871Z,100338.84
2022-09-11T07:13:17.675Z,100333.44
2022-09-11T07:16:25.449Z,100332.25
2022-09-11T07:19:23.815Z,100322.28
2022-09-11T07:21:53.818Z,100336.50
2022-09-11T07:24:25.685Z,100333.06
2022-09-11T07:26:55.202Z,100340.94
2022-09-11T07:29:29.591Z,100339.28
2022-09-11T07:31:58.935Z,100347.78
2022-09-11T07:34:29.976Z,100349.75
2022-09-11T07:37:01.749Z,100356.13
2022-09-11T07:39:29.758Z,100354.97
2022-09-11T07:42:04.631Z,100355.97
2022-09-11T07:44:34.560Z,100355.44
2022-09-11T07:47:03.274Z,100357.28
2022-09-11T07:49:37.672Z,100360.53
2022-09-11T07:52:06.533Z,100364.38
2022-09-11T07:54:45.399Z,100371.69
2022-09-11T07:57:14.547Z,100379.06
2022-09-11T07:59:43.555Z,100373.00
2022-09-11T08:02:12.547Z,100365.31
2022-09-11T08:04:42.187Z,100376.00
2022-09-11T08:07:10.549Z,100378.44
2022-09-11T08:09:39.168Z,100366.94
2022-09-11T08:12:07.912Z,100361.38
2022-09-11T08:14:38.483Z,100378.66
2022-09-11T08:17:16.293Z,100374.53
2022-09-11T08:19:46.111Z,100364.94
2022-09-11T08:22:14.503Z,100377.09
2022-09-11T08:24:45.593Z,100377.91
2022-09-11T08:27:17.471Z,100377.28
2022-09-11T08:29:47.017Z,100375.47
2022-09-11T08:32:14.896Z,100384.50
2022-09-11T08:34:43.300Z,100380.13
2022-09-11T08:37:13.878Z,100386.41
2022-09-11T08:39:41.992Z,100387.72
2022-09-11T08:42:16.182Z,100386.09
2022-09-11T08:44:50.267Z,100389.84
2022-09-11T08:47:28.830Z,100387.22
2022-09-11T08:50:03.736Z,100388.69
2022-09-11T08:52:36.792Z,100394.19
2022-09-11T08:55:14.640Z,100392.75
2022-09-11T08:57:51.817Z,100394.81
2022-09-11T09:00:24.934Z,100398.00
2022-09-11T09:03:25.053Z,100382.06
2022-09-11T09:05:57.386Z,100395.69
2022-09-11T09:08:40.597Z,100390.31
2022-09-11T09:11:21.562Z,100391.13
2022-09-11T09:14:05.929Z,100386.41
2022-09-11T09:16:45.687Z,100397.31
2022-09-11T09:19:20.930Z,100392.53
2022-09-11T09:21:58.624Z,100396.50
2022-09-11T09:24:31.684Z,100406.03
2022-09-11T09:26:59.678Z,100399.25
2022-09-11T09:29:37.724Z,100407.94
2022-09-11T09:32:14.160Z,100406.53
2022-09-11T09:34:46.217Z,100418.28
2022-09-11T09:37:18.658Z,100413.41
2022-09-11T09:39:48.541Z,100406.66
2022-09-11T09:42:42.695Z,100401.66
2022-09-11T09:45:32.536Z,100404.06
2022-09-11T09:48:01.090Z,100402.66
2022-09-11T09:50:31.884Z,100404.72
2022-09-11T09:53:12.026Z,100398.00
2022-09-11T09:55:42.407Z,100404.16
2022-09-11T09:58:10.961Z,100407.06
2022-09-11T10:00:41.669Z,100411.31
2022-09-11T10:03:20.427Z,100402.09
2022-09-11T10:05:50.498Z,100408.72
2022-09-11T10:08:33.845Z,100409.69
2022-09-11T10:11:05.164Z,100421.28
2022-09-11T10:13:34.922Z,100409.19
2022-09-11T10:16:05.618Z,100407.53
2022-09-11T10:18:51.588Z,100403.25
2022-09-11T10:21:29.492Z,100415.59
2022-09-11T10:23:59.046Z,100415.56
2022-09-11T10:26:34.486Z,100407.25
2022-09-11T10:29:10.086Z,100405.53
2022-09-11T10:31:42.603Z,100399.50
2022-09-11T10:34:16.932Z,100402.94
2022-09-11T10:36:54.074Z,100395.91
2022-09-11T10:39:24.525Z,100390.88
2022-09-11T10:41:59.373Z,100393.53
2022-09-11T10:44:29.766Z,100385.63
2022-09-11T10:47:06.659Z,100393.22
2022-09-11T10:49:35.030Z,100396.91
2022-09-11T10:52:17.380Z,100394.63
2022-09-11T10:54:56.305Z,100391.94
2022-09-11T10:57:31.096Z,100405.97
2022-09-11T11:00:14.112Z,100412.72
2022-09-11T11:02:45.534Z,100395.59
2022-09-11T11:05:21.072Z,100395.91
2022-09-11T11:08:16.317Z,100401.50
2022-09-11T11:11:03.772Z,100402.66
2022-09-11T11:13:47.011Z,100403.16
2022-09-11T11:16:23.674Z,100402.22
2022-09-11T11:19:26.489Z,100400.31
2022-09-11T11:22:03.068Z,100399.91
2022-09-11T11:24:46.570Z,100400.47
2022-09-11T11:27:27.401Z,100405.00
2022-09-11T11:30:15.329Z,100403.91
2022-09-11T11:32:59.406Z,100398.06
2022-09-11T11:35:34.425Z,100402.75
2022-09-11T11:38:10.487Z,100399.31
2022-09-11T11:40:43.711Z,100396.38
2022-09-11T11:43:13.362Z,100398.31
2022-09-11T11:45:47.191Z,100401.63
2022-09-11T11:48:20.608Z,100401.44
2022-09-11T11:50:53.165Z,100403.81
2022-09-11T11:53:25.405Z,100401.97
2022-09-11T11:56:04.409Z,100406.91
2022-09-11T11:58:48.364Z,100402.44
2022-09-11T12:01:25.863Z,100408.31
2022-09-11T12:04:02.712Z,100404.25
2022-09-11T12:06:31.555Z,100410.34
2022-09-11T12:08:59.742Z,100408.72
2022-09-11T12:11:34.002Z,100401.28
2022-09-11T12:14:03.082Z,100410.53
2022-09-11T12:16:34.264Z,100413.84
2022-09-11T12:19:05.934Z,100413.31
2022-09-11T12:21:40.311Z,100415.19
2022-09-11T12:24:17.706Z,100419.31
2022-09-11T12:26:46.180Z,100414.19
2022-09-11T12:29:50.876Z,100419.41
2022-09-11T12:32:43.454Z,100418.59
2022-09-11T12:35:41.495Z,100429.25
2022-09-11T12:38:22.417Z,100424.31
2022-09-11T12:40:56.466Z,100432.19
2022-09-11T12:43:48.954Z,100424.94
2022-09-11T12:46:54.015Z,100432.97
2022-09-11T12:49:27.311Z,100444.63
2022-09-11T12:51:57.611Z,100454.91
2022-09-11T12:54:31.243Z,100450.59
2022-09-11T12:57:03.580Z,100454.19
2022-09-11T12:59:36.021Z,100439.13
2022-09-11T13:02:06.519Z,100427.53
2022-09-11T13:04:36.026Z,100392.16
2022-09-11T13:07:09.639Z,100392.16
2022-09-11T13:09:41.587Z,100403.88
2022-09-11T13:12:49.153Z,100382.69
2022-09-11T13:15:48.366Z,100388.84
2022-09-11T13:18:38.177Z,100374.59
2022-09-11T13:21:17.415Z,100388.78
2022-09-11T13:23:46.892Z,100388.97
2022-09-11T13:26:24.653Z,100397.56
2022-09-11T13:28:55.667Z,100398.03
2022-09-11T13:31:33.816Z,100382.19
2022-09-11T13:34:04.051Z,100383.53
2022-09-11T13:36:37.370Z,100372.50
2022-09-11T13:39:06.443Z,100380.34
2022-09-11T13:41:37.937Z,100370.75
2022-09-11T13:44:12.271Z,100374.38
2022-09-11T13:46:50.705Z,100358.47
2022-09-11T13:49:33.590Z,100356.91
2022-09-11T13:52:06.329Z,100346.63
2022-09-11T13:54:38.341Z,100346.06
2022-09-11T13:57:17.057Z,100348.94
2022-09-11T13:59:47.202Z,100351.88
2022-09-11T14:02:41.870Z,100342.63
2022-09-11T14:05:14.728Z,100342.13
2022-09-11T14:07:48.649Z,100335.16
2022-09-11T14:10:22.716Z,100328.09
2022-09-11T14:12:55.162Z,100322.19
2022-09-11T14:15:30.457Z,100326.19
2022-09-11T14:18:03.246Z,100329.09
2022-09-11T14:20:33.667Z,100322.50
2022-09-11T14:23:06.939Z,100313.47
2022-09-11T14:25:35.158Z,100320.75
2022-09-11T14:28:03.408Z,100327.66
2022-09-11T14:30:37.366Z,100327.13
2022-09-11T14:33:20.183Z,100322.13
2022-09-11T14:35:50.377Z,100315.38
2022-09-11T14:38:24.052Z,100303.78
2022-09-11T14:40:57.008Z,100309.06
2022-09-11T14:43:31.321Z,100307.38
2022-09-11T14:46:00.684Z,100319.06
2022-09-11T14:48:29.678Z,100317.22
2022-09-11T14:50:58.309Z,100301.59
2022-09-11T14:53:30.897Z,100296.50
2022-09-11T14:56:00.485Z,100300.00
2022-09-11T14:58:29.907Z,100309.00
2022-09-11T15:00:58.615Z,100320.44
2022-09-11T15:03:27.075Z,100305.41
2022-09-11T15:05:57.254Z,100308.94
2022-09-11T15:08:26.476Z,100313.16
2022-09-11T15:10:56.031Z,100304.38
2022-09-11T15:13:23.847Z,100297.00
2022-09-11T15:15:53.518Z,100296.06
2022-09-11T15:18:21.592Z,100301.69
2022-09-11T15:20:49.164Z,100291.56
2022-09-11T15:23:17.720Z,100287.06
2022-09-11T15:25:45.781Z,100274.59
2022-09-11T15:28:15.030Z,100275.47
2022-09-11T15:30:43.039Z,100280.28
2022-09-11T15:33:11.380Z,100281.59
2022-09-11T15:35:39.564Z,100271.28
2022-09-11T15:38:07.980Z,100273.97
2022-09-11T15:40:36.620Z,100266.69
2022-09-11T15:43:04.788Z,100254.34
2022-09-11T15:45:34.411Z,100261.63
2022-09-11T15:48:02.978Z,100263.63
2022-09-11T15:50:31.082Z,100254.34
2022-09-11T15:52:59.694Z,100262.75
2022-09-11T15:55:30.096Z,100261.25
2022-09-11T15:58:00.923Z,100265.13
2022-09-11T16:00:29.390Z,100262.31
2022-09-11T16:02:58.653Z,100247.81
2022-09-11T16:05:26.881Z,100247.94
2022-09-11T16:07:55.106Z,100246.09
2022-09-11T16:10:23.340Z,100250.94
2022-09-11T16:12:53.546Z,100247.69
2022-09-11T16:15:25.149Z,100251.16
2022-09-11T16:17:53.312Z,100246.03
2022-09-11T16:20:22.946Z,100246.22
2022-09-11T16:22:51.095Z,100243.09
2022-09-11T16:25:19.963Z,100243.44
2022-09-11T16:27:48.314Z,100238.31
2022-09-11T16:30:41.662Z,100237.09
2022-09-11T16:33:04.624Z,100235.53
2022-09-11T16:35:34.231Z,100236.97
2022-09-11T16:38:02.732Z,100241.00
2022-09-11T16:40:31.241Z,100238.56
2022-09-11T16:42:59.553Z,100244.97
2022-09-11T16:45:28.292Z,100241.25
2022-09-11T16:47:57.159Z,100239.06
2022-09-11T16:50:25.123Z,100236.97
2022-09-11T16:52:55.157Z,100244.00
2022-09-11T16:55:23.012Z,100240.94
2022-09-11T16:57:51.048Z,100239.28
2022-09-11T17:00:19.459Z,100235.09
2022-09-11T17:02:51.124Z,100235.47
2022-09-11T17:05:20.030Z,100234.84
2022-09-11T17:07:47.888Z,100240.91
2022-09-11T17:10:17.039Z,100234.31
2022-09-11T17:12:44.864Z,100239.13
2022-09-11T17:15:12.909Z,100237.81
2022-09-11T17:17:42.297Z,100235.00
2022-09-11T17:20:14.070Z,100239.56
2022-09-11T17:22:43.341Z,100243.38
2022-09-11T17:25:11.567Z,100232.66
2022-09-11T17:27:41.060Z,100233.53
2022-09-11T17:30:10.871Z,100233.09
2022-09-11T17:32:39.114Z,100226.91
2022-09-11T17:35:07.404Z,100231.00
2022-09-11T17:37:35.291Z,100234.56
2022-09-11T17:40:03.597Z,100224.97
2022-09-11T17:42:32.433Z,100228.59
2022-09-11T17:45:02.759Z,100226.56
2022-09-11T17:47:33.082Z,100239.00
2022-09-11T17:50:01.636Z,100225.63
2022-09-11T17:52:30.039Z,100226.78
2022-09-11T17:54:57.897Z,100234.19
2022-09-11T17:57:26.568Z,100225.63
2022-09-11T17:59:55.363Z,100232.19
2022-09-11T18:02:25.024Z,100240.13
2022-09-11T18:04:53.263Z,100228.59
2022-09-11T18:07:22.089Z,100233.84
2022-09-11T18:09:54.096Z,100231.28
2022-09-11T18:12:25.990Z,100239.16
2022-09-11T18:14:56.069Z,100232.06
2022-09-11T18:17:26.694Z,100238.31
2022-09-11T18:19:54.639Z,100239.81
2022-09-11T18:22:23.363Z,100230.72
2022-09-11T18:24:52.541Z,100239.75
2022-09-11T18:27:21.278Z,100236.88
2022-09-11T18:29:50.284Z,100238.13
2022-09-11T18:32:19.939Z,100244.63
2022-09-11T18:34:49.899Z,100240.56
2022-09-11T18:37:17.932Z,100249.91
2022-09-11T18:39:46.636Z,100239.91
2022-09-11T18:42:15.220Z,100247.06
2022-09-11T18:44:43.318Z,100250.16
2022-09-11T18:47:11.337Z,100254.22
2022-09-11T18:49:39.712Z,100254.28
2022-09-11T18:52:10.917Z,100259.06
2022-09-11T18:54:39.185Z,100258.44
2022-09-11T18:57:10.416Z,100255.13
2022-09-11T18:59:39.113Z,100259.78
2022-09-11T19:02:08.192Z,100261.81
2022-09-11T19:04:36.204Z,100259.75
2022-09-11T19:07:05.064Z,100258.34
2022-09-11T19:09:35.479Z,100262.56
2022-09-11T19:12:05.363Z,100260.13
2022-09-11T19:14:35.876Z,100270.16
2022-09-11T19:17:04.470Z,100269.59
2022-09-11T19:19:34.491Z,100264.09
2022-09-11T19:22:02.632Z,100264.41
2022-09-11T19:24:31.272Z,100263.97
2022-09-11T19:27:00.909Z,100272.16
2022-09-11T19:29:28.934Z,100272.00
2022-09-11T19:31:56.741Z,100266.44
2022-09-11T19:34:25.027Z,100269.75
2022-09-11T19:36:53.498Z,100271.97
2022-09-11T19:39:22.059Z,100270.59
2022-09-11T19:41:50.383Z,100270.19
2022-09-11T19:44:20.935Z,100270.28
2022-09-11T19:46:53.581Z,100267.66
2022-09-11T19:49:21.710Z,100265.03
2022-09-11T19:51:53.165Z,100260.34
2022-09-11T19:54:22.630Z,100266.44
2022-09-11T19:56:51.230Z,100263.56
2022-09-11T19:59:20.809Z,100270.75
2022-09-11T20:01:49.210Z,100270.31
2022-09-11T20:04:19.116Z,100266.47
2022-09-11T20:09:31.031Z,100277.53
2022-09-11T20:12:00.792Z,100275.75
2022-09-11T20:14:30.991Z,100268.00
2022-09-11T20:17:01.259Z,100275.88
2022-09-11T20:19:29.434Z,100280.88
2022-09-11T20:21:58.010Z,100272.84
2022-09-11T20:24:26.598Z,100275.47
2022-09-11T20:26:55.383Z,100282.50
2022-09-11T20:29:23.285Z,100278.47
2022-09-11T20:31:56.561Z,100277.13
2022-09-11T20:34:28.029Z,100283.50
2022-09-11T20:37:00.796Z,100285.56
2022-09-11T20:39:29.473Z,100285.13
2022-09-11T20:41:57.489Z,100284.03
2022-09-11T20:44:26.736Z,100281.00
2022-09-11T20:46:55.943Z,100273.75
2022-09-11T20:49:26.922Z,100274.72
2022-09-11T20:51:55.066Z,100270.63
2022-09-11T20:54:23.227Z,100274.63
2022-09-11T20:56:51.357Z,100265.38
2022-09-11T20:59:19.649Z,100271.41
2022-09-11T21:01:49.347Z,100265.88
2022-09-11T21:04:18.936Z,100265.53
2022-09-11T21:06:48.032Z,100266.13
2022-09-11T21:09:17.470Z,100262.91
2022-09-11T21:11:45.851Z,100259.09
2022-09-11T21:14:16.628Z,100263.66
2022-09-11T21:16:46.037Z,100258.78
2022-09-11T21:19:14.580Z,100264.53
2022-09-11T21:21:43.971Z,100263.25
2022-09-11T21:24:16.015Z,100263.91
2022-09-11T21:26:44.430Z,100260.78
2022-09-11T21:29:16.307Z,100263.81
2022-09-11T21:31:44.503Z,100262.06
2022-09-11T21:34:12.649Z,100267.97
2022-09-11T21:36:40.883Z,100265.66
2022-09-11T21:39:10.043Z,100261.81
2022-09-11T21:41:38.242Z,100261.91
2022-09-11T21:44:06.912Z,100271.16
2022-09-11T21:46:34.868Z,100258.97
2022-09-11T21:49:03.400Z,100260.38
2022-09-11T21:51:31.858Z,100259.56
2022-09-11T21:54:01.930Z,100256.00
2022-09-11T21:56:34.047Z,100263.13
2022-09-11T21:59:03.211Z,100254.50
2022-09-11T22:01:32.277Z,100247.28
2022-09-11T22:04:01.392Z,100256.81
2022-09-11T22:06:30.127Z,100254.13
2022-09-11T22:08:58.502Z,100256.84
2022-09-11T22:11:26.952Z,100254.94
2022-09-11T22:13:56.477Z,100249.47
2022-09-11T22:16:24.729Z,100251.16
2022-09-11T22:18:54.149Z,100252.47
2022-09-11T22:21:22.123Z,100252.31
2022-09-11T22:23:50.455Z,100245.56
2022-09-11T22:26:20.593Z,100245.72
2022-09-11T22:28:48.513Z,100252.50
2022-09-11T22:31:20.921Z,100240.44
2022-09-11T22:33:49.534Z,100246.56
2022-09-11T22:36:19.722Z,100241.81
2022-09-11T22:38:48.566Z,100246.47
2022-09-11T22:41:17.351Z,100243.66
2022-09-11T22:43:47.635Z,100238.19
2022-09-11T22:46:17.901Z,100236.72
2022-09-11T22:48:45.962Z,100232.34
2022-09-11T22:51:13.734Z,100237.44
2022-09-11T22:53:43.334Z,100239.78
2022-09-11T22:56:13.806Z,100243.00
2022-09-11T22:58:41.928Z,100251.16
2022-09-11T23:01:12.490Z,100244.50
2022-09-11T23:03:41.667Z,100251.41
2022-09-11T23:06:29.733Z,100250.34
2022-09-11T23:09:00.375Z,100245.09
2022-09-11T23:11:29.363Z,100248.03
2022-09-11T23:13:58.296Z,100258.19
2022-09-11T23:16:29.521Z,100253.38
2022-09-11T23:19:01.214Z,100250.13
2022-09-11T23:21:30.364Z,100248.84
2022-09-11T23:23:59.532Z,100240.53
2022-09-11T23:26:28.784Z,100241.50
2022-09-11T23:28:56.989Z,100237.72
2022-09-11T23:31:26.795Z,100239.75
2022-09-11T23:33:56.321Z,100233.00
2022-09-11T23:36:26.596Z,100231.66
2022-09-11T23:38:54.489Z,100233.31
2022-09-11T23:41:23.335Z,100232.53
2022-09-11T23:43:52.366Z,100236.44
2022-09-11T23:46:20.418Z,100227.63
2022-09-11T23:48:48.540Z,100230.47
2022-09-11T23:51:17.105Z,100227.88
2022-09-11T23:53:49.279Z,100222.19
2022-09-11T23:56:17.214Z,100230.81
2022-09-11T23:58:46.935Z,100224.97
